createdAt,value
2024-01-22T00:00:24.644Z,268.67
2024-01-22T00:01:24.601Z,263.26
2024-01-22T00:02:24.593Z,232.54
2024-01-22T00:03:24.650Z,185.97
2024-01-22T00:04:24.573Z,162.04
2024-01-22T00:05:24.696Z,146.60
2024-01-22T00:06:24.638Z,136.16
2024-01-22T00:07:24.517Z,130.19
2024-01-22T00:08:24.512Z,127.59
2024-01-22T00:09:24.516Z,126.91
2024-01-22T00:10:24.510Z,122.51
2024-01-22T00:11:24.464Z,117.99
2024-01-22T00:12:24.458Z,110.39
2024-01-22T00:13:24.456Z,105.69
2024-01-22T00:14:24.448Z,105.89
2024-01-22T00:15:24.467Z,105.56
2024-01-22T00:16:24.446Z,106.43
2024-01-22T00:17:24.463Z,108.94
2024-01-22T00:18:25.271Z,113.95
2024-01-22T00:19:24.674Z,120.21
2024-01-22T00:20:24.408Z,122.60
2024-01-22T00:21:24.401Z,125.95
2024-01-22T00:22:24.362Z,128.98
2024-01-22T00:23:24.336Z,129.58
2024-01-22T00:24:24.340Z,121.71
2024-01-22T00:25:24.309Z,111.73
2024-01-22T00:26:24.297Z,101.50
2024-01-22T00:27:24.339Z,94.84
2024-01-22T00:28:24.290Z,92.84
2024-01-22T00:29:24.262Z,89.25
2024-01-22T00:30:24.295Z,86.74
2024-01-22T00:31:26.209Z,87.10
2024-01-22T00:32:24.270Z,87.84
2024-01-22T00:33:24.299Z,83.76
2024-01-22T00:34:24.228Z,79.52
2024-01-22T00:35:24.190Z,73.80
2024-01-22T00:36:24.210Z,69.71
2024-01-22T00:37:24.165Z,66.75
2024-01-22T00:38:24.142Z,63.78
2024-01-22T00:39:24.156Z,61.15
2024-01-22T00:40:24.141Z,59.15
2024-01-22T00:41:24.169Z,57.08
2024-01-22T00:42:24.097Z,56.23
2024-01-22T00:43:24.089Z,56.00
2024-01-22T00:44:24.077Z,55.66
2024-01-22T00:45:24.074Z,54.78
2024-01-22T00:46:24.074Z,54.39
2024-01-22T00:47:24.078Z,55.00
2024-01-22T00:48:24.122Z,54.00
2024-01-22T00:49:24.200Z,54.07
2024-01-22T00:50:24.020Z,55.40
2024-01-22T00:51:24.064Z,59.19
2024-01-22T00:52:23.983Z,59.49
2024-01-22T00:53:23.969Z,60.00
2024-01-22T00:54:23.940Z,61.01
2024-01-22T00:55:23.936Z,63.34
2024-01-22T00:56:23.927Z,67.18
2024-01-22T00:57:23.940Z,68.34
2024-01-22T00:58:23.894Z,67.02
2024-01-22T00:59:23.884Z,75.82
2024-01-22T01:00:23.922Z,81.95
2024-01-22T01:01:23.876Z,88.40
2024-01-22T01:02:23.918Z,95.95
2024-01-22T01:03:23.959Z,107.40
2024-01-22T01:04:23.882Z,117.41
2024-01-22T01:05:23.829Z,125.47
2024-01-22T01:06:23.829Z,133.64
2024-01-22T01:07:23.777Z,135.38
2024-01-22T01:08:23.781Z,139.12
2024-01-22T01:09:23.811Z,143.94
2024-01-22T01:10:23.774Z,148.30
2024-01-22T01:11:23.764Z,151.00
2024-01-22T01:12:23.739Z,152.38
2024-01-22T01:13:23.737Z,152.66
2024-01-22T01:14:23.701Z,156.40
2024-01-22T01:15:23.692Z,158.48
2024-01-22T01:16:23.694Z,164.60
2024-01-22T01:17:23.689Z,165.75
2024-01-22T01:18:23.740Z,169.47
2024-01-22T01:19:23.714Z,173.36
2024-01-22T01:20:23.621Z,172.46
2024-01-22T01:21:23.640Z,172.28
2024-01-22T01:22:23.607Z,177.43
2024-01-22T01:23:23.591Z,179.54
2024-01-22T01:24:23.578Z,183.70
2024-01-22T01:25:23.586Z,187.68
2024-01-22T01:26:23.552Z,193.57
2024-01-22T01:27:23.596Z,200.09
2024-01-22T01:28:23.578Z,206.80
2024-01-22T01:29:23.513Z,209.18
2024-01-22T01:30:23.492Z,211.21
2024-01-22T01:31:23.476Z,213.27
2024-01-22T01:32:23.522Z,204.60
2024-01-22T01:33:23.627Z,204.73
2024-01-22T01:34:23.532Z,209.45
2024-01-22T01:35:23.426Z,220.02
2024-01-22T01:37:23.405Z,229.12
2024-01-22T01:38:23.397Z,225.49
2024-01-22T01:39:23.391Z,216.09
2024-01-22T01:40:23.391Z,204.21
2024-01-22T01:41:23.387Z,196.96
2024-01-22T01:42:23.371Z,190.86
2024-01-22T01:43:23.330Z,185.96
2024-01-22T01:44:23.357Z,191.20
2024-01-22T01:45:23.358Z,189.42
2024-01-22T01:46:23.292Z,188.22
2024-01-22T01:47:23.358Z,190.53
2024-01-22T01:48:23.467Z,191.42
2024-01-22T01:49:23.349Z,193.57
2024-01-22T01:50:23.276Z,193.23
2024-01-22T01:51:23.231Z,194.15
2024-01-22T01:52:23.220Z,197.31
2024-01-22T01:53:23.224Z,197.67
2024-01-22T01:54:23.214Z,194.38
2024-01-22T01:55:23.201Z,196.96
2024-01-22T01:56:23.208Z,209.05
2024-01-22T01:57:23.157Z,217.24
2024-01-22T01:58:23.157Z,226.58
2024-01-22T01:59:23.139Z,234.38
2024-01-22T02:00:23.325Z,248.64
2024-01-22T02:01:23.327Z,255.84
2024-01-22T02:02:23.179Z,260.11
2024-01-22T02:03:23.201Z,269.55
2024-01-22T02:04:23.073Z,272.25
2024-01-22T02:05:23.107Z,274.30
2024-01-22T02:06:23.066Z,279.22
2024-01-22T02:07:23.050Z,283.83
2024-01-22T02:08:23.046Z,287.07
2024-01-22T02:09:23.005Z,286.82
2024-01-22T02:10:23.019Z,286.57
2024-01-22T02:11:23.022Z,284.08
2024-01-22T02:12:22.984Z,285.82
2024-01-22T02:13:23.014Z,290.39
2024-01-22T02:14:23.011Z,288.08
2024-01-22T02:15:22.992Z,294.84
2024-01-22T02:16:23.002Z,298.61
2024-01-22T02:17:22.922Z,297.79
2024-01-22T02:18:23.100Z,300.53
2024-01-22T02:19:23.080Z,301.92
2024-01-22T02:20:22.883Z,297.25
2024-01-22T02:21:22.866Z,299.98
2024-01-22T02:22:22.848Z,303.04
2024-01-22T02:23:22.829Z,309.35
2024-01-22T02:24:22.858Z,315.62
2024-01-22T02:25:22.813Z,320.26
2024-01-22T02:26:22.806Z,319.63
2024-01-22T02:27:22.846Z,324.07
2024-01-22T02:28:22.793Z,325.36
2024-01-22T02:29:22.777Z,330.29
2024-01-22T02:30:22.809Z,335.37
2024-01-22T02:31:22.776Z,339.90
2024-01-22T02:32:22.729Z,347.49
2024-01-22T02:33:22.899Z,353.51
2024-01-22T02:34:22.728Z,361.72
2024-01-22T02:35:22.697Z,371.17
2024-01-22T02:36:22.708Z,377.60
2024-01-22T02:37:22.685Z,383.34
2024-01-22T02:38:22.670Z,385.12
2024-01-22T02:39:22.717Z,394.03
2024-01-22T02:40:22.641Z,400.44
2024-01-22T02:41:22.670Z,403.12
2024-01-22T02:42:22.648Z,405.08
2024-01-22T02:43:22.605Z,406.07
2024-01-22T02:44:22.614Z,406.32
2024-01-22T02:45:22.598Z,411.86
2024-01-22T02:46:22.552Z,415.99
2024-01-22T02:47:22.572Z,423.41
2024-01-22T02:48:22.708Z,421.27
2024-01-22T02:49:22.622Z,429.43
2024-01-22T02:50:22.515Z,433.36
2024-01-22T02:51:22.549Z,444.37
2024-01-22T02:52:22.536Z,451.01
2024-01-22T02:53:22.472Z,455.34
2024-01-22T02:54:22.484Z,454.71
2024-01-22T02:55:22.436Z,456.27
2024-01-22T02:56:22.448Z,462.63
2024-01-22T02:57:22.485Z,464.89
2024-01-22T02:58:22.413Z,472.50
2024-01-22T02:59:22.397Z,475.20
2024-01-22T03:00:22.474Z,481.40
2024-01-22T03:01:22.412Z,486.34
2024-01-22T03:02:22.357Z,484.56
2024-01-22T03:03:22.452Z,484.92
2024-01-22T03:04:22.378Z,487.05
2024-01-22T03:05:22.308Z,489.56
2024-01-22T03:06:22.408Z,487.41
2024-01-22T03:07:22.392Z,487.76
2024-01-22T03:08:22.283Z,490.28
2024-01-22T03:09:22.281Z,489.20
2024-01-22T03:10:22.265Z,500.25
2024-01-22T03:11:22.245Z,505.20
2024-01-22T03:12:22.298Z,513.00
2024-01-22T03:13:28.772Z,518.61
2024-01-22T03:14:22.214Z,520.23
2024-01-22T03:15:22.252Z,517.40
2024-01-22T03:16:22.187Z,513.40
2024-01-22T03:17:22.221Z,510.63
2024-01-22T03:18:22.277Z,516.99
2024-01-22T03:19:22.304Z,519.42
2024-01-22T03:20:22.134Z,516.99
2024-01-22T03:21:22.146Z,515.79
2024-01-22T03:22:22.103Z,519.82
2024-01-22T03:23:22.111Z,530.20
2024-01-22T03:24:22.117Z,532.75
2024-01-22T03:25:22.057Z,534.89
2024-01-22T03:26:22.133Z,537.49
2024-01-22T03:27:22.074Z,543.20
2024-01-22T03:28:22.055Z,549.04
2024-01-22T03:29:22.032Z,548.13
2024-01-22T03:30:22.074Z,544.09
2024-01-22T03:31:22.011Z,544.09
2024-01-22T03:32:22.013Z,543.65
2024-01-22T03:33:22.033Z,540.55
2024-01-22T03:34:22.075Z,549.95
2024-01-22T03:35:21.992Z,541.43
2024-01-22T03:36:21.934Z,543.20
2024-01-22T03:37:21.927Z,544.98
2024-01-22T03:38:21.913Z,550.40
2024-01-22T03:39:21.975Z,554.07
2024-01-22T03:40:21.921Z,546.78
2024-01-22T03:41:21.898Z,554.07
2024-01-22T03:42:21.927Z,558.73
2024-01-22T03:43:21.856Z,563.47
2024-01-22T03:44:21.835Z,556.86
2024-01-22T03:45:21.881Z,565.39
2024-01-22T03:46:21.800Z,567.81
2024-01-22T03:47:21.791Z,562.04
2024-01-22T03:48:21.872Z,548.13
2024-01-22T03:49:21.902Z,539.23
2024-01-22T03:50:21.777Z,539.23
2024-01-22T03:51:21.908Z,540.55
2024-01-22T03:52:21.734Z,538.36
2024-01-22T03:53:21.715Z,537.05
2024-01-22T03:54:21.739Z,533.60
2024-01-22T03:55:21.733Z,531.47
2024-01-22T03:56:21.697Z,526.41
2024-01-22T03:57:21.729Z,528.09
2024-01-22T03:58:21.674Z,531.04
2024-01-22T03:59:21.700Z,540.55
2024-01-22T04:00:21.689Z,551.32
2024-01-22T04:01:21.749Z,529.35
2024-01-22T04:02:21.617Z,510.63
2024-01-22T04:03:21.722Z,501.01
2024-01-22T04:04:21.634Z,506.74
2024-01-22T04:05:21.566Z,502.90
2024-01-22T04:06:21.656Z,507.90
2024-01-22T04:07:21.657Z,507.13
2024-01-22T04:08:21.520Z,505.58
2024-01-22T04:09:21.580Z,501.76
2024-01-22T04:10:21.525Z,499.50
2024-01-22T04:11:21.502Z,496.14
2024-01-22T04:12:21.883Z,491.74
2024-01-22T04:13:27.084Z,485.27
2024-01-22T04:14:21.460Z,487.76
2024-01-22T04:15:21.548Z,490.65
2024-01-22T04:16:21.440Z,478.97
2024-01-22T04:17:21.491Z,473.17
2024-01-22T04:18:21.605Z,470.16
2024-01-22T04:19:21.483Z,469.16
2024-01-22T04:20:21.376Z,477.60
2024-01-22T04:21:21.502Z,469.83
2024-01-22T04:22:21.350Z,473.85
2024-01-22T04:23:21.358Z,473.85
2024-01-22T04:24:21.431Z,480.36
2024-01-22T04:25:21.326Z,487.05
2024-01-22T04:26:21.312Z,498.75
2024-01-22T04:27:21.335Z,512.21
2024-01-22T04:28:21.282Z,515.39
2024-01-22T04:29:21.298Z,521.46
2024-01-22T04:30:21.325Z,513.00
2024-01-22T04:31:21.252Z,521.05
2024-01-22T04:32:21.260Z,525.17
2024-01-22T04:33:21.322Z,525.58
2024-01-22T04:34:21.393Z,509.85
2024-01-22T04:35:21.225Z,513.00
2024-01-22T04:36:21.285Z,518.61
2024-01-22T04:37:21.180Z,518.20
2024-01-22T04:38:21.192Z,534.46
2024-01-22T04:39:21.177Z,544.09
2024-01-22T04:40:21.136Z,553.61
2024-01-22T04:41:21.133Z,571.72
2024-01-22T04:42:21.136Z,586.35
2024-01-22T04:43:21.101Z,589.47
2024-01-22T04:44:21.092Z,577.68
2024-01-22T04:45:21.141Z,580.71
2024-01-22T04:46:21.077Z,578.69
2024-01-22T04:47:21.070Z,588.95
2024-01-22T04:48:21.186Z,599.04
2024-01-22T04:49:21.033Z,605.59
2024-01-22T04:50:21.008Z,608.36
2024-01-22T04:51:21.037Z,616.84
2024-01-22T04:52:21.003Z,615.70
2024-01-22T04:53:20.980Z,606.15
2024-01-22T04:54:21.011Z,612.29
2024-01-22T04:55:22.884Z,626.14
2024-01-22T04:56:20.944Z,630.90
2024-01-22T04:57:20.967Z,637.56
2024-01-22T04:58:20.906Z,638.78
2024-01-22T04:59:20.900Z,653.87
2024-01-22T05:00:21.007Z,669.02
2024-01-22T05:01:20.870Z,671.72
2024-01-22T05:02:20.897Z,673.77
2024-01-22T05:03:20.882Z,679.28
2024-01-22T05:04:20.869Z,688.43
2024-01-22T05:05:20.861Z,680.67
2024-01-22T05:06:20.838Z,683.47
2024-01-22T05:07:20.815Z,697.83
2024-01-22T05:08:20.781Z,697.10
2024-01-22T05:09:20.873Z,712.81
2024-01-22T05:10:20.773Z,725.26
2024-01-22T05:11:20.786Z,743.10
2024-01-22T05:12:20.779Z,761.30
2024-01-22T05:13:20.733Z,771.01
2024-01-22T05:14:20.706Z,780.06
2024-01-22T05:15:20.801Z,762.61
2024-01-22T05:16:20.687Z,755.25
2024-01-22T05:17:20.672Z,752.26
2024-01-22T05:18:22.665Z,734.07
2024-01-22T05:19:20.742Z,741.45
2024-01-22T05:20:20.643Z,754.40
2024-01-22T05:21:20.707Z,766.57
2024-01-22T05:22:20.604Z,760.43
2024-01-22T05:23:20.610Z,761.30
2024-01-22T05:24:20.692Z,752.69
2024-01-22T05:25:20.563Z,754.40
2024-01-22T05:26:20.611Z,760.00
2024-01-22T05:27:20.565Z,763.05
2024-01-22T05:28:20.532Z,748.87
2024-01-22T05:29:20.522Z,745.61
2024-01-22T05:30:20.653Z,753.54
2024-01-22T05:31:20.562Z,752.69
2024-01-22T05:32:20.509Z,767.01
2024-01-22T05:33:20.577Z,761.30
2024-01-22T05:34:20.562Z,745.61
2024-01-22T05:35:20.461Z,724.47
2024-01-22T05:36:20.549Z,712.81
2024-01-22T05:37:20.459Z,710.52
2024-01-22T05:38:20.404Z,718.20
2024-01-22T05:39:20.477Z,705.24
2024-01-22T05:40:20.434Z,712.04
2024-01-22T05:41:20.401Z,705.99
2024-01-22T05:42:20.430Z,711.28
2024-01-22T05:43:20.346Z,705.24
2024-01-22T05:44:20.383Z,712.81
2024-01-22T05:45:20.412Z,738.15
2024-01-22T05:46:20.344Z,742.27
2024-01-22T05:47:20.333Z,739.79
2024-01-22T05:48:20.400Z,732.45
2024-01-22T05:49:20.614Z,725.26
2024-01-22T05:50:20.259Z,745.93
2024-01-22T05:51:20.323Z,760.43
2024-01-22T05:52:20.255Z,748.03
2024-01-22T05:53:20.223Z,767.01
2024-01-22T05:54:20.325Z,767.01
2024-01-22T05:55:20.288Z,761.30
2024-01-22T05:56:20.211Z,755.25
2024-01-22T05:57:20.285Z,763.93
2024-01-22T05:58:20.156Z,778.23
2024-01-22T05:59:20.243Z,794.98
2024-01-22T06:00:20.389Z,786.98
2024-01-22T06:01:20.203Z,787.45
2024-01-22T06:02:20.107Z,778.23
2024-01-22T06:03:20.177Z,753.54
2024-01-22T06:04:20.161Z,750.56
2024-01-22T06:05:20.169Z,726.84
2024-01-22T06:06:20.121Z,728.44
2024-01-22T06:07:20.110Z,684.18
2024-01-22T06:08:20.040Z,646.87
2024-01-22T06:09:20.041Z,632.10
2024-01-22T06:10:20.074Z,632.10
2024-01-22T06:11:20.011Z,617.99
2024-01-22T06:12:20.049Z,630.30
2024-01-22T06:13:19.979Z,626.73
2024-01-22T06:14:19.965Z,593.16
2024-01-22T06:15:19.986Z,555.00
2024-01-22T06:16:19.926Z,524.34
2024-01-22T06:17:20.070Z,525.58
2024-01-22T06:18:20.252Z,519.82
2024-01-22T06:19:20.104Z,492.46
2024-01-22T06:20:19.947Z,462.31
2024-01-22T06:21:19.916Z,511.42
2024-01-22T06:22:19.869Z,536.19
2024-01-22T06:23:19.848Z,528.09
2024-01-22T06:24:19.993Z,504.81
2024-01-22T06:25:19.929Z,481.40
2024-01-22T06:26:19.909Z,478.28
2024-01-22T06:27:19.902Z,469.83
2024-01-22T06:28:20.128Z,456.59
2024-01-22T06:29:19.840Z,421.80
2024-01-22T06:30:19.845Z,394.50
2024-01-22T06:31:19.751Z,373.71
2024-01-22T06:32:19.751Z,369.91
2024-01-22T06:33:19.827Z,377.16
2024-01-22T06:34:19.941Z,355.43
2024-01-22T06:35:19.700Z,313.50
2024-01-22T06:36:19.814Z,292.20
2024-01-22T06:37:19.677Z,276.62
2024-01-22T06:38:19.692Z,261.57
2024-01-22T06:39:19.735Z,269.33
2024-01-22T06:40:19.659Z,246.76
2024-01-22T06:41:19.608Z,288.85
2024-01-22T06:42:27.503Z,346.39
2024-01-22T06:43:19.596Z,361.72
2024-01-22T06:44:19.567Z,357.76
2024-01-22T06:45:19.682Z,378.47
2024-01-22T06:46:19.558Z,375.00
2024-01-22T06:47:19.541Z,377.60
2024-01-22T06:48:19.675Z,403.61
2024-01-22T06:49:19.688Z,411.86
2024-01-22T06:50:19.549Z,415.99
2024-01-22T06:51:27.163Z,411.35
2024-01-22T06:52:19.488Z,396.86
2024-01-22T06:53:19.449Z,366.18
2024-01-22T06:54:20.865Z,391.48
2024-01-22T06:55:19.438Z,377.60
2024-01-22T06:56:19.412Z,373.71
2024-01-22T06:57:19.518Z,356.59
2024-01-22T06:58:19.385Z,330.96
2024-01-22T06:59:19.426Z,340.61
2024-01-22T07:00:19.438Z,343.48
2024-01-22T07:01:19.432Z,358.55
2024-01-22T07:02:19.340Z,355.43
2024-01-22T07:03:19.383Z,370.75
2024-01-22T07:04:19.332Z,359.33
2024-01-22T07:05:19.440Z,337.10
2024-01-22T07:06:22.103Z,313.50
2024-01-22T07:07:19.296Z,298.88
2024-01-22T07:08:19.317Z,304.17
2024-01-22T07:09:19.289Z,325.68
2024-01-22T07:10:19.247Z,335.72
2024-01-22T07:11:19.233Z,339.55
2024-01-22T07:12:19.261Z,321.52
2024-01-22T07:13:19.230Z,309.05
2024-01-22T07:14:19.178Z,315.31
2024-01-22T07:15:19.304Z,310.52
2024-01-22T07:16:20.022Z,302.48
2024-01-22T07:17:19.179Z,298.34
2024-01-22T07:18:19.323Z,290.13
2024-01-22T07:19:19.405Z,296.71
2024-01-22T07:20:19.165Z,302.48
2024-01-22T07:21:19.230Z,292.20
2024-01-22T07:22:19.092Z,301.36
2024-01-22T07:23:19.071Z,295.37
2024-01-22T07:24:19.084Z,286.82
2024-01-22T07:25:19.170Z,284.57
2024-01-22T07:26:19.036Z,273.39
2024-01-22T07:27:19.116Z,296.17
2024-01-22T07:28:19.017Z,305.59
2024-01-22T07:29:19.008Z,317.46
2024-01-22T07:30:19.067Z,331.29
2024-01-22T07:31:18.981Z,332.64
2024-01-22T07:32:19.112Z,331.29
2024-01-22T07:33:19.061Z,336.41
2024-01-22T07:34:19.077Z,341.32
2024-01-22T07:35:18.930Z,315.62
2024-01-22T07:36:19.140Z,341.32
2024-01-22T07:37:19.081Z,332.30
2024-01-22T07:38:18.977Z,340.61
2024-01-22T07:39:19.024Z,351.98
2024-01-22T07:40:18.866Z,313.50
2024-01-22T07:41:18.857Z,293.25
2024-01-22T07:42:18.957Z,293.78
2024-01-22T07:43:18.847Z,294.57
2024-01-22T07:44:18.907Z,256.24
2024-01-22T07:45:18.949Z,253.07
2024-01-22T07:46:18.805Z,260.11
2024-01-22T07:47:20.144Z,261.36
2024-01-22T07:48:19.040Z,293.51
2024-01-22T07:49:18.839Z,296.17
2024-01-22T07:50:18.885Z,288.08
2024-01-22T07:51:18.791Z,282.11
2024-01-22T07:52:18.713Z,273.16
2024-01-22T07:53:18.712Z,265.61
2024-01-22T07:54:18.726Z,288.34
2024-01-22T07:55:19.353Z,301.64
2024-01-22T07:56:18.660Z,316.23
2024-01-22T07:57:18.714Z,303.60
2024-01-22T07:58:18.662Z,293.78
2024-01-22T07:59:18.641Z,277.56
2024-01-22T08:00:18.637Z,268.89
2024-01-22T08:01:18.632Z,267.13
2024-01-22T08:02:18.598Z,295.10
2024-01-22T08:03:18.662Z,314.40
2024-01-22T08:04:19.533Z,350.85
2024-01-22T08:05:18.547Z,346.39
2024-01-22T08:06:19.296Z,347.86
2024-01-22T08:07:20.691Z,360.13
2024-01-22T08:08:18.517Z,378.47
2024-01-22T08:09:18.532Z,364.95
2024-01-22T08:10:19.708Z,373.71
2024-01-22T08:11:18.498Z,399.00
2024-01-22T08:12:18.586Z,407.57
2024-01-22T08:13:18.460Z,398.52
2024-01-22T08:14:18.454Z,428.88
2024-01-22T08:15:18.520Z,380.71
2024-01-22T08:16:21.368Z,372.43
2024-01-22T08:17:18.534Z,375.86
2024-01-22T08:18:18.579Z,386.02
2024-01-22T08:19:18.585Z,431.67
2024-01-22T08:20:47.880Z,435.63
2024-01-22T08:21:18.443Z,437.06
2024-01-22T08:22:18.416Z,483.50
2024-01-22T08:23:18.479Z,464.57
2024-01-22T08:24:18.420Z,471.83
2024-01-22T08:25:18.433Z,472.16
2024-01-22T08:26:19.933Z,465.22
2024-01-22T08:27:18.323Z,486.69
2024-01-22T08:28:18.341Z,494.30
2024-01-22T08:29:18.320Z,483.86
2024-01-22T08:30:18.329Z,478.28
2024-01-22T08:31:18.253Z,489.56
2024-01-22T08:32:32.918Z,471.16
2024-01-22T08:33:19.206Z,443.48
2024-01-22T08:34:18.469Z,427.77
2024-01-22T08:35:18.559Z,365.36
2024-01-22T08:36:18.239Z,364.95
2024-01-22T08:37:18.178Z,329.95
2024-01-22T08:38:18.145Z,330.62
2024-01-22T08:39:18.220Z,352.74
2024-01-22T08:40:18.197Z,356.20
2024-01-22T08:41:18.094Z,316.54
2024-01-22T08:42:18.116Z,250.93
2024-01-22T08:43:18.073Z,273.16
2024-01-22T08:44:18.150Z,276.39
2024-01-22T08:45:18.079Z,258.67
2024-01-22T08:46:18.084Z,236.07
2024-01-22T08:47:18.049Z,257.05
2024-01-22T08:48:18.120Z,246.58
2024-01-22T08:49:18.025Z,243.27
2024-01-22T08:50:18.022Z,256.44
2024-01-22T08:51:17.978Z,272.02
2024-01-22T08:52:17.945Z,264.96
2024-01-22T08:53:17.945Z,280.42
2024-01-22T08:54:18.008Z,307.02
2024-01-22T08:55:17.910Z,322.47
2024-01-22T08:56:18.092Z,326.33
2024-01-22T08:57:17.937Z,339.20
2024-01-22T08:58:17.871Z,342.76
2024-01-22T08:59:17.868Z,374.14
2024-01-22T09:00:17.901Z,411.10
2024-01-22T09:01:17.900Z,426.95
2024-01-22T09:02:18.012Z,444.37
2024-01-22T09:03:17.923Z,464.89
2024-01-22T09:04:18.522Z,505.20
2024-01-22T09:05:17.865Z,503.67
2024-01-22T09:06:17.875Z,493.93
2024-01-22T09:07:17.790Z,507.51
2024-01-22T09:08:17.794Z,531.04
2024-01-22T09:09:17.886Z,541.87
2024-01-22T09:10:17.789Z,555.00
2024-01-22T09:11:17.793Z,538.80
2024-01-22T09:12:18.080Z,545.88
2024-01-22T09:13:17.757Z,531.89
2024-01-22T09:14:26.299Z,544.98
2024-01-22T09:15:17.952Z,592.63
2024-01-22T09:16:17.780Z,582.75
2024-01-22T09:17:17.696Z,557.80
2024-01-22T09:18:17.689Z,549.49
2024-01-22T09:19:17.720Z,496.89
2024-01-22T09:20:17.899Z,489.56
2024-01-22T09:21:17.653Z,494.67
2024-01-22T09:22:17.620Z,491.01
2024-01-22T09:23:17.592Z,470.49
2024-01-22T09:24:18.724Z,466.20
2024-01-22T09:25:18.073Z,453.47
2024-01-22T09:26:17.533Z,454.40
2024-01-22T09:27:17.597Z,447.97
2024-01-22T09:28:17.576Z,459.43
2024-01-22T09:29:17.559Z,452.85
2024-01-22T09:30:19.676Z,464.57
2024-01-22T09:31:17.505Z,463.27
2024-01-22T09:32:17.487Z,437.93
2024-01-22T09:33:17.659Z,396.62
2024-01-22T09:34:17.589Z,409.33
2024-01-22T09:35:17.516Z,414.43
2024-01-22T09:36:18.634Z,424.22
2024-01-22T09:37:17.647Z,406.57
2024-01-22T09:38:17.465Z,389.64
2024-01-22T09:39:17.452Z,388.27
2024-01-22T09:40:22.522Z,373.71
2024-01-22T09:41:17.419Z,360.92
2024-01-22T09:42:19.255Z,354.27
2024-01-22T09:43:17.437Z,360.92
2024-01-22T09:44:17.452Z,358.94
2024-01-22T09:45:17.514Z,357.76
2024-01-22T09:46:17.413Z,352.74
2024-01-22T09:47:17.295Z,353.12
2024-01-22T09:48:17.416Z,385.35
2024-01-22T09:49:17.360Z,400.93
2024-01-22T09:50:17.275Z,399.00
2024-01-22T09:51:17.255Z,398.52
2024-01-22T09:52:17.413Z,378.91
2024-01-22T09:53:17.244Z,385.35
2024-01-22T09:54:18.602Z,408.82
2024-01-22T09:55:17.167Z,388.05
2024-01-22T09:56:17.202Z,344.93
2024-01-22T09:57:17.149Z,343.84
2024-01-22T09:58:17.153Z,336.41
2024-01-22T09:59:17.161Z,304.73
2024-01-22T10:00:17.273Z,347.86
2024-01-22T10:01:17.153Z,363.33
2024-01-22T10:02:18.004Z,384.90
2024-01-22T10:03:17.170Z,390.55
2024-01-22T10:04:17.135Z,374.14
2024-01-22T10:05:17.032Z,354.66
2024-01-22T10:06:17.131Z,358.15
2024-01-22T10:07:17.074Z,364.54
2024-01-22T10:08:17.047Z,383.34
2024-01-22T10:09:17.063Z,356.59
2024-01-22T10:10:19.722Z,365.36
2024-01-22T10:11:16.984Z,344.93
2024-01-22T10:12:16.998Z,323.75
2024-01-22T10:13:16.944Z,292.73
2024-01-22T10:14:16.924Z,275.46
2024-01-22T10:15:16.985Z,269.11
2024-01-22T10:16:20.270Z,266.48
2024-01-22T10:17:16.903Z,272.93
2024-01-22T10:18:17.110Z,275.23
2024-01-22T10:19:17.021Z,264.54
2024-01-22T10:20:16.899Z,245.84
2024-01-22T10:21:16.839Z,209.45
2024-01-22T10:22:16.829Z,210.12
2024-01-22T10:23:16.810Z,206.54
2024-01-22T10:24:16.856Z,220.02
2024-01-22T10:25:16.798Z,243.27
2024-01-22T10:26:16.800Z,238.48
2024-01-22T10:27:17.002Z,223.02
2024-01-22T10:28:16.782Z,229.93
2024-01-22T10:29:16.747Z,228.96
2024-01-22T10:30:16.818Z,214.25
2024-01-22T10:31:17.171Z,231.06
2024-01-22T10:32:16.788Z,239.88
2024-01-22T10:33:18.534Z,235.22
2024-01-22T10:34:17.177Z,257.65
2024-01-22T10:35:18.313Z,280.18
2024-01-22T10:36:18.247Z,275.69
2024-01-22T10:38:36.363Z,208.12
2024-01-22T10:39:37.341Z,231.72
2024-01-22T10:40:37.482Z,249.59
2024-01-22T10:41:39.494Z,281.39
2024-01-22T10:42:37.979Z,349.35
2024-01-22T10:43:38.296Z,392.17
2024-01-22T10:44:37.261Z,417.30
2024-01-22T10:45:37.541Z,425.31
2024-01-22T10:46:37.133Z,449.48
2024-01-22T10:47:37.442Z,456.27
2024-01-22T10:48:43.840Z,486.69
2024-01-22T10:49:39.562Z,516.59
2024-01-22T10:50:37.866Z,518.20
2024-01-22T10:51:38.862Z,511.42
2024-01-22T10:52:37.926Z,479.32
2024-01-22T10:53:37.075Z,470.83
2024-01-22T10:54:37.105Z,504.81
2024-01-22T10:55:37.199Z,534.89
2024-01-22T10:56:38.406Z,522.69
2024-01-22T10:57:55.556Z,519.42
2024-01-22T10:58:40.300Z,506.74
2024-01-22T10:59:38.889Z,502.90
2024-01-22T11:00:37.239Z,496.89
2024-01-22T11:01:39.381Z,493.93
2024-01-22T11:02:39.718Z,508.68
2024-01-22T11:03:38.841Z,542.31
2024-01-22T11:04:37.121Z,573.69
2024-01-22T11:05:38.157Z,576.68
2024-01-22T11:06:37.302Z,594.22
2024-01-22T11:07:40.401Z,610.04
2024-01-22T11:08:36.916Z,630.90
2024-01-22T11:09:37.852Z,653.23
2024-01-22T11:10:37.046Z,645.61
2024-01-22T11:11:37.807Z,635.12
2024-01-22T11:12:37.347Z,632.10
2024-01-22T11:13:37.269Z,626.73
2024-01-22T11:14:37.010Z,640.63
2024-01-22T11:15:37.697Z,636.95
2024-01-22T11:16:37.648Z,641.25
2024-01-22T11:17:37.527Z,630.30
2024-01-22T11:18:37.581Z,644.36
2024-01-22T11:19:42.713Z,634.51
2024-01-22T11:20:37.474Z,615.70
2024-01-22T11:21:37.724Z,617.99
2024-01-22T11:22:36.983Z,592.63
2024-01-22T11:23:39.767Z,566.84
2024-01-22T11:24:37.781Z,558.73
2024-01-22T11:25:37.551Z,564.43
2024-01-22T11:26:37.116Z,544.54
2024-01-22T11:27:39.404Z,581.73
2024-01-22T11:28:38.054Z,600.66
2024-01-22T11:29:37.399Z,636.95
2024-01-22T11:30:39.318Z,620.29
2024-01-22T11:31:37.560Z,616.84
2024-01-22T11:32:37.117Z,636.95
2024-01-22T11:33:36.869Z,621.46
2024-01-22T11:34:37.005Z,623.79
2024-01-22T11:35:36.727Z,632.10
2024-01-22T11:36:37.052Z,653.23
2024-01-22T11:37:39.232Z,637.56
2024-01-22T11:38:37.056Z,569.76
2024-01-22T11:39:37.781Z,531.47
2024-01-22T11:40:39.057Z,491.74
2024-01-22T11:41:36.801Z,468.17
2024-01-22T11:42:37.000Z,444.37
2024-01-22T11:43:39.357Z,466.20
2024-01-22T11:44:39.318Z,450.40
2024-01-22T11:45:42.072Z,415.21
2024-01-22T11:46:37.667Z,408.82
2024-01-22T11:47:37.850Z,396.62
2024-01-22T11:48:39.402Z,432.23
2024-01-22T11:49:38.321Z,452.24
2024-01-22T11:50:37.048Z,466.20
2024-01-22T11:51:38.741Z,456.27
2024-01-22T11:52:36.887Z,476.57
2024-01-22T11:53:38.895Z,463.92
2024-01-22T11:54:38.255Z,447.36
2024-01-22T11:55:47.299Z,499.12
2024-01-22T11:56:39.231Z,544.09
2024-01-22T11:57:36.780Z,556.86
2024-01-22T11:58:39.988Z,557.80
2024-01-22T11:59:39.789Z,507.51
2024-01-22T12:00:38.540Z,521.05
2024-01-22T12:01:37.778Z,521.46
2024-01-22T12:02:36.636Z,518.61
2024-01-22T12:03:37.088Z,468.50
2024-01-22T12:04:38.335Z,390.10
2024-01-22T12:05:40.272Z,335.72
2024-01-22T12:06:57.906Z,319.01
2024-01-22T12:07:37.800Z,389.41
2024-01-22T12:08:37.742Z,401.41
2024-01-22T12:09:39.141Z,375.00
2024-01-22T12:10:48.098Z,419.14
2024-01-22T12:11:41.599Z,460.39
2024-01-22T12:14:32.353Z,505.20
2024-01-22T12:14:41.029Z,563.47
2024-01-22T12:15:41.313Z,535.75
2024-01-22T12:16:47.537Z,539.23
2024-01-22T12:17:55.772Z,526.41
2024-01-22T12:19:29.304Z,492.46
2024-01-22T12:19:39.422Z,501.76
2024-01-22T12:20:44.592Z,481.05
2024-01-22T12:21:48.357Z,473.85
2024-01-22T12:22:49.505Z,493.20
2024-01-22T12:23:44.658Z,512.21
2024-01-22T12:24:50.708Z,534.46
2024-01-22T12:25:39.914Z,563.95
2024-01-22T12:26:43.034Z,583.26
2024-01-22T12:27:45.268Z,603.39
2024-01-22T12:28:44.038Z,604.49
2024-01-22T12:29:38.792Z,594.22
2024-01-22T12:30:39.178Z,611.16
2024-01-22T12:31:41.588Z,580.21
2024-01-22T12:32:39.090Z,606.15